Time;durP1;ratioP1;P1;durP2;ratioP2;P2;SDS_P1;SDS_P2;PMS_P1;PMS_P2;Temp;Humidity;BMP_temperature;BMP_pressure;BME280_temperature;BME280_humidity;BME280_pressure;Samples;Min_cycle;Max_cycle;Signal;HPM_P1;HPM_P2
2022/02/14 00:02:11;;;;;;;59.65;42.95;;;;;;;;;;5014511;28;20079;-76
2022/02/14 00:04:37;;;;;;;74.70;50.40;;;;;;;;;;5014341;28;20029;-77
2022/02/14 00:07:03;;;;;;;65.28;45.03;;;;;;;;;;5014382;28;20030;-76
2022/02/14 00:09:30;;;;;;;64.65;44.92;;;;;;;;;;5014117;28;20384;-76
2022/02/14 00:11:56;;;;;;;79.03;56.42;;;;;;;;;;5014242;28;20483;-76
2022/02/14 00:14:23;;;;;;;82.57;54.08;;;;;;;;;;5014247;28;20472;-76
2022/02/14 00:16:49;;;;;;;63.63;46.05;;;;;;;;;;5013967;28;20427;-76
2022/02/14 00:19:15;;;;;;;63.38;45.40;;;;;;;;;;5014248;28;20049;-76
2022/02/14 00:21:41;;;;;;;57.70;41.42;;;;;;;;;;5013885;28;20041;-77
2022/02/14 00:24:09;;;;;;;62.45;43.17;;;;;;;;;;5012801;28;20401;-76
2022/02/14 00:26:36;;;;;;;51.58;37.35;;;;;;;;;;5013947;28;20034;-76
2022/02/14 00:29:03;;;;;;;47.58;32.28;;;;;;;;;;5013939;28;20041;-76
2022/02/14 00:31:29;;;;;;;46.65;32.92;;;;;;;;;;5013573;28;20081;-77
2022/02/14 00:33:56;;;;;;;43.33;33.00;;;;;;;;;;5011173;28;20030;-77
2022/02/14 00:36:22;;;;;;;44.33;31.98;;;;;;;;;;5002255;28;20030;-76
2022/02/14 00:38:48;;;;;;;45.90;33.15;;;;;;;;;;5019006;28;20112;-76
2022/02/14 00:41:14;;;;;;;49.60;35.30;;;;;;;;;;4994400;28;20114;-76
2022/02/14 00:43:40;;;;;;;49.58;32.85;;;;;;;;;;4993951;28;20057;-76
2022/02/14 00:46:06;;;;;;;43.95;33.20;;;;;;;;;;5009078;28;20026;-76
2022/02/14 00:48:33;;;;;;;46.85;33.03;;;;;;;;;;4993933;28;20026;-77
2022/02/14 00:50:59;;;;;;;51.67;36.10;;;;;;;;;;4993784;28;20053;-77
2022/02/14 00:53:25;;;;;;;43.30;31.98;;;;;;;;;;4994006;28;20038;-76
2022/02/14 00:55:51;;;;;;;43.78;30.38;;;;;;;;;;4993620;28;20465;-75
2022/02/14 00:58:17;;;;;;;44.63;32.20;;;;;;;;;;4993848;28;20117;-76
2022/02/14 01:00:43;;;;;;;44.03;33.42;;;;;;;;;;4993475;28;20038;-76
2022/02/14 01:03:10;;;;;;;51.67;37.78;;;;;;;;;;4993794;28;20031;-76
2022/02/14 01:05:36;;;;;;;48.70;34.92;;;;;;;;;;4993753;28;20031;-77
2022/02/14 01:08:02;;;;;;;42.08;29.83;;;;;;;;;;4993501;28;20034;-76
2022/02/14 01:10:28;;;;;;;38.83;28.30;;;;;;;;;;4993629;28;20444;-76
2022/02/14 01:12:54;;;;;;;42.00;29.02;;;;;;;;;;4993274;28;20128;-76
2022/02/14 01:15:20;;;;;;;43.55;30.50;;;;;;;;;;4993533;28;20445;-76
2022/02/14 01:17:47;;;;;;;64.68;42.70;;;;;;;;;;4993340;28;20589;-76
2022/02/14 01:20:14;;;;;;;63.45;45.17;;;;;;;;;;4993354;28;20029;-76
2022/02/14 01:22:41;;;;;;;62.97;42.28;;;;;;;;;;4993523;28;20030;-76
2022/02/14 01:25:08;;;;;;;67.70;45.35;;;;;;;;;;5008012;28;20038;-76
2022/02/14 01:27:34;;;;;;;65.18;43.95;;;;;;;;;;4993216;28;20541;-76
2022/02/14 01:30:00;;;;;;;77.70;48.03;;;;;;;;;;4992742;28;20069;-76
2022/02/14 01:32:26;;;;;;;51.50;35.38;;;;;;;;;;4993312;28;20034;-75
2022/02/14 01:34:53;;;;;;;47.35;31.42;;;;;;;;;;4992864;28;20034;-76
2022/02/14 01:37:20;;;;;;;45.97;33.13;;;;;;;;;;4993187;28;20038;-76
2022/02/14 01:39:47;;;;;;;42.03;29.38;;;;;;;;;;5008053;28;20076;-76
2022/02/14 01:42:13;;;;;;;35.28;24.70;;;;;;;;;;4992947;28;20027;-76
2022/02/14 01:44:41;;;;;;;37.92;29.00;;;;;;;;;;4993254;28;20022;-76
2022/02/14 01:47:11;;;;;;;42.70;30.13;;;;;;;;;;4992581;28;20041;-76
2022/02/14 01:49:45;;;;;;;46.00;30.42;;;;;;;;;;4993079;28;20022;-77
2022/02/14 01:52:12;;;;;;;48.37;31.60;;;;;;;;;;4993076;28;20034;-76
2022/02/14 01:54:42;;;;;;;50.28;33.38;;;;;;;;;;4992804;28;20256;-76
2022/02/14 01:57:09;;;;;;;46.03;32.13;;;;;;;;;;4992719;28;20077;-76
2022/02/14 01:59:36;;;;;;;44.22;29.80;;;;;;;;;;4992697;28;20473;-76
2022/02/14 02:02:03;;;;;;;38.42;27.13;;;;;;;;;;4992701;28;20031;-76
2022/02/14 02:04:29;;;;;;;32.95;25.73;;;;;;;;;;4992928;28;20430;-76
2022/02/14 02:06:56;;;;;;;29.73;22.38;;;;;;;;;;4992494;28;20396;-76
2022/02/14 02:09:23;;;;;;;30.08;21.27;;;;;;;;;;4992703;28;20026;-75
2022/02/14 02:14:33;;;;;;;30.98;21.98;;;;;;;;;;4992468;28;20089;-76
2022/02/14 02:17:00;;;;;;;27.88;21.00;;;;;;;;;;5007649;28;20500;-75
2022/02/14 02:19:30;;;;;;;27.30;19.92;;;;;;;;;;4992730;28;20081;-76
2022/02/14 02:21:57;;;;;;;25.00;19.77;;;;;;;;;;4992768;28;20370;-75
2022/02/14 02:24:24;;;;;;;30.05;20.73;;;;;;;;;;4992588;28;20073;-75
2022/02/14 02:27:09;;;;;;;27.90;20.38;;;;;;;;;;4992415;28;20058;-76
2022/02/14 02:29:38;;;;;;;25.67;19.90;;;;;;;;;;4992446;28;20100;-75
2022/02/14 02:32:05;;;;;;;27.27;21.52;;;;;;;;;;4992628;28;20084;-76
2022/02/14 02:34:32;;;;;;;26.38;20.02;;;;;;;;;;4992553;28;20030;-75
2022/02/14 02:36:59;;;;;;;28.10;19.70;;;;;;;;;;4992441;28;20030;-76
2022/02/14 02:39:26;;;;;;;25.33;19.33;;;;;;;;;;4995726;28;20109;-76
2022/02/14 02:41:53;;;;;;;30.17;20.50;;;;;;;;;;4996483;28;20084;-76
2022/02/14 02:44:20;;;;;;;26.33;19.27;;;;;;;;;;4995913;28;20026;-75
2022/02/14 02:46:46;;;;;;;24.80;19.83;;;;;;;;;;4996383;28;20022;-76
2022/02/14 02:49:12;;;;;;;31.38;21.88;;;;;;;;;;4996018;28;20033;-76
2022/02/14 02:51:39;;;;;;;41.97;30.60;;;;;;;;;;4996104;28;20023;-75
2022/02/14 02:54:06;;;;;;;42.15;28.02;;;;;;;;;;4996324;28;20116;-76
2022/02/14 02:56:32;;;;;;;40.55;27.02;;;;;;;;;;4995841;28;20481;-76
2022/02/14 02:58:58;;;;;;;44.60;31.38;;;;;;;;;;5010989;28;20034;-76
2022/02/14 03:01:25;;;;;;;39.50;29.70;;;;;;;;;;4995814;28;20026;-76
2022/02/14 03:03:52;;;;;;;41.42;30.73;;;;;;;;;;4996052;28;20026;-76
2022/02/14 03:06:19;;;;;;;39.42;26.80;;;;;;;;;;4995660;28;20041;-76
2022/02/14 03:08:45;;;;;;;37.45;27.35;;;;;;;;;;4995856;28;20026;-76
2022/02/14 03:11:11;;;;;;;41.95;30.92;;;;;;;;;;4995745;28;20026;-76
2022/02/14 03:13:37;;;;;;;42.30;30.33;;;;;;;;;;4995540;28;20444;-76
2022/02/14 03:16:04;;;;;;;40.78;30.70;;;;;;;;;;4995778;28;20062;-76
2022/02/14 03:18:30;;;;;;;41.38;31.70;;;;;;;;;;4995361;28;20058;-76
2022/02/14 03:20:56;;;;;;;33.42;24.73;;;;;;;;;;4995693;28;20057;-76
2022/02/14 03:23:22;;;;;;;33.70;25.45;;;;;;;;;;4997926;28;20109;-76
2022/02/14 03:25:48;;;;;;;34.65;27.30;;;;;;;;;;5009491;28;20036;-76
2022/02/14 03:28:14;;;;;;;36.03;27.27;;;;;;;;;;5013851;28;20117;-76
2022/02/14 03:30:40;;;;;;;41.83;29.27;;;;;;;;;;5014667;28;20562;-75
2022/02/14 03:33:06;;;;;;;45.33;31.38;;;;;;;;;;5015083;28;20472;-76
2022/02/14 03:35:32;;;;;;;51.55;32.55;;;;;;;;;;5014606;28;20030;-76
2022/02/14 03:37:59;;;;;;;32.97;24.73;;;;;;;;;;5014963;28;20037;-76
2022/02/14 03:40:26;;;;;;;27.75;21.27;;;;;;;;;;5014820;28;20473;-76
2022/02/14 03:42:52;;;;;;;25.15;20.35;;;;;;;;;;5014647;28;20091;-76
2022/02/14 03:45:19;;;;;;;25.67;18.58;;;;;;;;;;5014821;28;20079;-75
2022/02/14 03:47:45;;;;;;;25.23;18.77;;;;;;;;;;5014489;28;20103;-76
2022/02/14 03:50:11;;;;;;;23.92;18.00;;;;;;;;;;5014357;28;20029;-76
2022/02/14 03:52:37;;;;;;;25.05;18.90;;;;;;;;;;5014422;28;20025;-76
2022/02/14 03:55:03;;;;;;;26.73;19.98;;;;;;;;;;5014813;28;20030;-76
2022/02/14 03:57:29;;;;;;;26.23;18.77;;;;;;;;;;5014379;28;20042;-76
2022/02/14 03:59:55;;;;;;;27.75;20.60;;;;;;;;;;5014584;28;20524;-75
2022/02/14 04:02:22;;;;;;;25.92;18.85;;;;;;;;;;5014505;28;20105;-75
2022/02/14 04:04:49;;;;;;;23.27;18.25;;;;;;;;;;5012825;28;20080;-76
2022/02/14 04:07:15;;;;;;;24.48;18.23;;;;;;;;;;5013087;28;20440;-76
2022/02/14 04:09:41;;;;;;;27.13;18.92;;;;;;;;;;5012765;28;20057;-76
2022/02/14 04:12:08;;;;;;;25.30;18.42;;;;;;;;;;5014439;28;20030;-76
2022/02/14 04:14:34;;;;;;;23.83;18.38;;;;;;;;;;5008265;28;20496;-76
2022/02/14 04:17:00;;;;;;;26.55;19.35;;;;;;;;;;5011523;28;20137;-75
2022/02/14 04:19:26;;;;;;;24.90;19.35;;;;;;;;;;5014192;28;20112;-76
2022/02/14 04:21:52;;;;;;;23.42;17.10;;;;;;;;;;5013915;28;20108;-76
2022/02/14 04:24:18;;;;;;;26.83;19.83;;;;;;;;;;5014171;28;20033;-76
2022/02/14 04:26:44;;;;;;;25.48;17.52;;;;;;;;;;5013751;28;20030;-76
2022/02/14 04:29:10;;;;;;;22.77;16.70;;;;;;;;;;5014212;28;20077;-76
2022/02/14 04:31:36;;;;;;;24.33;17.83;;;;;;;;;;5013713;28;20544;-76
2022/02/14 04:34:03;;;;;;;25.85;19.80;;;;;;;;;;5013612;28;20076;-76
2022/02/14 04:36:29;;;;;;;24.23;18.48;;;;;;;;;;5013779;28;20038;-76
2022/02/14 04:38:55;;;;;;;24.67;17.85;;;;;;;;;;5013573;28;20091;-76
2022/02/14 04:41:21;;;;;;;24.55;18.05;;;;;;;;;;5013859;28;20040;-76
2022/02/14 04:43:47;;;;;;;20.20;16.20;;;;;;;;;;5013867;28;20034;-76
2022/02/14 04:46:13;;;;;;;20.08;16.85;;;;;;;;;;5014141;28;20434;-76
2022/02/14 04:48:39;;;;;;;25.05;19.25;;;;;;;;;;5013624;28;20025;-76
2022/02/14 04:51:05;;;;;;;24.35;17.23;;;;;;;;;;5013251;28;20034;-75
2022/02/14 04:53:31;;;;;;;23.55;18.00;;;;;;;;;;5013355;28;20413;-76
2022/02/14 04:55:57;;;;;;;24.75;19.35;;;;;;;;;;5013146;28;20029;-76
2022/02/14 04:58:23;;;;;;;28.92;23.65;;;;;;;;;;5013503;28;20034;-76
2022/02/14 05:00:50;;;;;;;31.33;25.48;;;;;;;;;;5012498;28;20025;-76
2022/02/14 05:03:16;;;;;;;27.83;22.35;;;;;;;;;;5013340;28;20048;-76
2022/02/14 05:05:42;;;;;;;28.58;21.42;;;;;;;;;;5012047;28;20033;-75
2022/02/14 05:08:08;;;;;;;28.73;21.63;;;;;;;;;;5013000;28;20053;-75
2022/02/14 05:10:34;;;;;;;25.65;19.85;;;;;;;;;;5011933;28;20424;-76
2022/02/14 05:13:00;;;;;;;24.48;18.77;;;;;;;;;;5013193;28;20026;-75
2022/02/14 05:15:26;;;;;;;27.35;21.58;;;;;;;;;;5013072;28;20064;-76
2022/02/14 05:17:53;;;;;;;27.00;21.00;;;;;;;;;;5013264;28;20577;-76
2022/02/14 05:20:19;;;;;;;27.55;21.60;;;;;;;;;;5012947;28;20045;-76
2022/02/14 05:22:45;;;;;;;45.33;34.30;;;;;;;;;;5012924;28;20022;-76
2022/02/14 05:25:11;;;;;;;36.67;27.77;;;;;;;;;;5011422;28;20026;-76
2022/02/14 05:27:37;;;;;;;39.92;29.63;;;;;;;;;;5013004;28;20034;-76
2022/02/14 05:30:04;;;;;;;52.38;39.20;;;;;;;;;;5012529;28;20070;-76
2022/02/14 05:32:30;;;;;;;43.53;32.50;;;;;;;;;;5012767;28;20037;-76
2022/02/14 05:34:56;;;;;;;47.83;36.75;;;;;;;;;;5012873;28;20033;-75
2022/02/14 05:37:23;;;;;;;38.85;27.83;;;;;;;;;;5012492;28;20485;-75
2022/02/14 05:39:49;;;;;;;48.85;32.50;;;;;;;;;;5012825;28;20535;-76
2022/02/14 05:42:15;;;;;;;43.25;30.35;;;;;;;;;;5012406;28;20034;-76
2022/02/14 05:44:41;;;;;;;37.38;27.65;;;;;;;;;;5012696;28;20025;-76
2022/02/14 05:47:08;;;;;;;32.88;24.33;;;;;;;;;;5012668;28;20466;-76
2022/02/14 05:49:34;;;;;;;35.22;25.90;;;;;;;;;;5012566;28;20032;-76
2022/02/14 05:52:00;;;;;;;29.67;22.38;;;;;;;;;;5012559;28;20034;-75
2022/02/14 05:54:26;;;;;;;28.90;21.48;;;;;;;;;;5012053;28;20032;-75
2022/02/14 05:56:53;;;;;;;32.78;23.52;;;;;;;;;;5012574;28;20512;-76
2022/02/14 05:59:19;;;;;;;27.83;20.55;;;;;;;;;;5012104;28;20025;-76
2022/02/14 06:01:45;;;;;;;29.85;22.23;;;;;;;;;;5012406;28;20396;-75
2022/02/14 06:04:12;;;;;;;39.13;28.25;;;;;;;;;;5012177;28;20021;-76
2022/02/14 06:06:38;;;;;;;38.38;27.13;;;;;;;;;;5012430;28;20033;-76
2022/02/14 06:09:05;;;;;;;40.00;31.50;;;;;;;;;;5012408;28;20033;-76
2022/02/14 06:11:31;;;;;;;40.67;30.27;;;;;;;;;;5011845;28;20034;-76
2022/02/14 06:13:57;;;;;;;48.22;35.30;;;;;;;;;;5012221;28;20080;-76
2022/02/14 06:16:23;;;;;;;49.88;36.88;;;;;;;;;;5011341;28;20034;-76
2022/02/14 06:18:50;;;;;;;40.58;30.23;;;;;;;;;;5012143;28;20025;-76
2022/02/14 06:21:16;;;;;;;40.35;28.50;;;;;;;;;;5011459;28;20022;-76
2022/02/14 06:23:43;;;;;;;35.80;27.00;;;;;;;;;;5011409;28;20030;-76
2022/02/14 06:26:09;;;;;;;36.58;25.92;;;;;;;;;;5010659;28;20030;-75
2022/02/14 06:28:38;;;;;;;38.35;27.55;;;;;;;;;;5007678;28;20038;-76
2022/02/14 06:31:07;;;;;;;36.90;25.27;;;;;;;;;;5018410;28;20148;-77
2022/02/14 06:33:34;;;;;;;30.92;20.77;;;;;;;;;;5031107;28;20104;-75
2022/02/14 06:36:00;;;;;;;30.27;21.27;;;;;;;;;;5031791;28;20037;-77
2022/02/14 06:38:26;;;;;;;38.83;26.95;;;;;;;;;;5031346;28;20424;-78
2022/02/14 06:40:52;;;;;;;39.97;29.58;;;;;;;;;;5032140;28;20113;-77
2022/02/14 06:43:18;;;;;;;42.92;31.15;;;;;;;;;;5031817;28;20030;-77
2022/02/14 06:45:45;;;;;;;42.20;30.55;;;;;;;;;;5031339;28;20029;-77
2022/02/14 06:48:12;;;;;;;36.30;29.40;;;;;;;;;;5030209;28;20022;-77
2022/02/14 06:50:38;;;;;;;35.03;28.02;;;;;;;;;;5031465;28;20052;-77
2022/02/14 06:53:05;;;;;;;32.88;24.65;;;;;;;;;;5027743;28;20037;-77
2022/02/14 06:55:31;;;;;;;33.58;24.50;;;;;;;;;;5030086;28;20045;-78
2022/02/14 06:57:57;;;;;;;31.23;24.92;;;;;;;;;;5029791;28;20054;-77
2022/02/14 07:00:23;;;;;;;33.72;23.25;;;;;;;;;;5030469;28;20388;-77
2022/02/14 07:02:50;;;;;;;29.85;24.23;;;;;;;;;;5030191;28;20021;-77
2022/02/14 07:05:17;;;;;;;33.85;25.65;;;;;;;;;;5030200;28;20025;-76
2022/02/14 07:07:44;;;;;;;43.45;32.97;;;;;;;;;;5030510;28;20072;-77
2022/02/14 07:10:10;;;;;;;56.30;44.17;;;;;;;;;;5030214;28;20029;-77
2022/02/14 07:12:37;;;;;;;86.55;61.70;;;;;;;;;;5030291;28;20053;-77
2022/02/14 07:15:04;;;;;;;117.50;82.13;;;;;;;;;;5030403;28;20026;-76
2022/02/14 07:17:32;;;;;;;94.35;66.75;;;;;;;;;;5029806;28;20543;-78
2022/02/14 07:19:58;;;;;;;170.32;115.20;;;;;;;;;;5030260;28;20033;-76
2022/02/14 07:22:24;;;;;;;120.90;86.22;;;;;;;;;;5028890;28;20326;-76
2022/02/14 07:24:50;;;;;;;118.90;83.47;;;;;;;;;;5032596;28;20017;-77
2022/02/14 07:27:17;;;;;;;90.38;72.68;;;;;;;;;;5025755;28;20034;-76
2022/02/14 07:29:43;;;;;;;102.10;82.60;;;;;;;;;;4993198;28;20042;-77
2022/02/14 07:32:09;;;;;;;56.28;42.42;;;;;;;;;;5001762;28;20038;-76
2022/02/14 07:34:35;;;;;;;65.68;50.95;;;;;;;;;;5011983;28;20116;-76
2022/02/14 07:37:02;;;;;;;80.45;59.67;;;;;;;;;;5012507;28;20072;-75
2022/02/14 07:39:33;;;;;;;77.10;59.95;;;;;;;;;;5013441;28;20045;-76
2022/02/14 07:41:59;;;;;;;96.03;73.18;;;;;;;;;;5013837;28;20048;-75
2022/02/14 07:44:26;;;;;;;88.78;64.57;;;;;;;;;;5012944;28;20141;-77
2022/02/14 07:46:52;;;;;;;88.95;61.65;;;;;;;;;;5011313;28;20026;-77
2022/02/14 07:49:23;;;;;;;83.95;60.13;;;;;;;;;;5013498;28;20049;-78
2022/02/14 07:51:49;;;;;;;92.75;63.95;;;;;;;;;;5013610;28;20037;-77
2022/02/14 07:54:15;;;;;;;91.57;66.93;;;;;;;;;;5013204;28;20040;-77
2022/02/14 07:56:42;;;;;;;84.57;60.10;;;;;;;;;;5013008;28;20060;-76
2022/02/14 07:59:08;;;;;;;76.22;56.60;;;;;;;;;;5011654;28;20053;-77
2022/02/14 08:01:34;;;;;;;82.15;60.90;;;;;;;;;;5012292;28;20077;-77
2022/02/14 08:04:05;;;;;;;83.05;61.30;;;;;;;;;;5013053;28;20030;-77
2022/02/14 08:06:31;;;;;;;77.35;55.05;;;;;;;;;;5012892;28;20030;-77
2022/02/14 08:08:58;;;;;;;78.82;59.70;;;;;;;;;;5013488;28;20018;-76
2022/02/14 08:11:24;;;;;;;71.90;53.78;;;;;;;;;;5013000;28;20018;-76
2022/02/14 08:13:50;;;;;;;71.75;52.55;;;;;;;;;;5013147;28;20026;-77
2022/02/14 08:16:16;;;;;;;49.50;38.05;;;;;;;;;;5013129;28;20030;-76
2022/02/14 08:18:42;;;;;;;40.95;31.58;;;;;;;;;;5011328;28;20744;-76
2022/02/14 08:21:08;;;;;;;44.47;33.53;;;;;;;;;;5013262;28;20541;-77
2022/02/14 08:23:34;;;;;;;31.83;25.15;;;;;;;;;;5012518;28;20053;-76
2022/02/14 08:26:00;;;;;;;24.70;19.65;;;;;;;;;;5013095;28;20041;-76
2022/02/14 08:28:28;;;;;;;20.75;14.50;;;;;;;;;;5011930;28;20022;-77
2022/02/14 08:30:54;;;;;;;20.10;14.63;;;;;;;;;;5012580;28;20064;-76
2022/02/14 08:33:20;;;;;;;17.75;13.50;;;;;;;;;;5012265;28;20068;-75
2022/02/14 08:35:46;;;;;;;18.88;12.88;;;;;;;;;;5011919;28;20069;-76
2022/02/14 08:38:12;;;;;;;18.77;12.13;;;;;;;;;;5012361;28;20037;-77
2022/02/14 08:40:39;;;;;;;16.00;11.82;;;;;;;;;;5012280;28;20065;-75
2022/02/14 08:43:05;;;;;;;18.20;11.57;;;;;;;;;;5011068;28;20022;-76
2022/02/14 08:45:33;;;;;;;18.58;12.20;;;;;;;;;;5010999;28;20397;-76
2022/02/14 08:48:00;;;;;;;18.48;13.75;;;;;;;;;;5012830;28;20058;-76
2022/02/14 08:50:29;;;;;;;17.15;12.60;;;;;;;;;;5011256;28;20034;-75
2022/02/14 08:52:55;;;;;;;17.48;12.52;;;;;;;;;;5012290;28;20037;-77
2022/02/14 08:55:22;;;;;;;17.58;12.93;;;;;;;;;;5012501;28;20030;-76
2022/02/14 08:57:48;;;;;;;18.50;13.00;;;;;;;;;;5011608;28;20477;-75
2022/02/14 09:00:15;;;;;;;21.02;14.05;;;;;;;;;;5012559;28;20026;-74
2022/02/14 09:02:41;;;;;;;17.45;14.27;;;;;;;;;;5011523;28;20481;-75
2022/02/14 09:05:07;;;;;;;21.77;16.52;;;;;;;;;;5011771;28;20034;-75
2022/02/14 09:07:33;;;;;;;19.98;16.75;;;;;;;;;;5012066;28;21070;-76
2022/02/14 09:10:00;;;;;;;19.80;15.48;;;;;;;;;;5012349;28;20113;-75
2022/02/14 09:12:26;;;;;;;16.23;12.23;;;;;;;;;;5011855;28;20064;-76
2022/02/14 09:14:52;;;;;;;19.27;12.32;;;;;;;;;;5012037;28;20034;-75
2022/02/14 09:17:19;;;;;;;44.47;30.23;;;;;;;;;;5011647;28;20068;-74
2022/02/14 09:19:45;;;;;;;29.50;21.02;;;;;;;;;;5011971;28;20026;-75
2022/02/14 09:22:12;;;;;;;50.47;35.22;;;;;;;;;;5011885;28;20392;-75
2022/02/14 09:24:38;;;;;;;37.25;26.17;;;;;;;;;;5011247;28;20079;-75
2022/02/14 09:27:06;;;;;;;22.35;16.45;;;;;;;;;;5018156;28;20029;-75
2022/02/14 09:29:32;;;;;;;59.83;48.05;;;;;;;;;;4991386;28;20030;-75
2022/02/14 09:31:58;;;;;;;25.10;15.52;;;;;;;;;;4991712;28;20058;-75
2022/02/14 09:34:25;;;;;;;32.45;26.75;;;;;;;;;;4992480;28;20026;-74
2022/02/14 09:36:53;;;;;;;18.67;14.27;;;;;;;;;;4991973;28;20042;-75
2022/02/14 09:39:19;;;;;;;27.00;18.77;;;;;;;;;;4992219;28;20034;-75
2022/02/14 09:41:46;;;;;;;20.20;14.68;;;;;;;;;;4991866;28;20030;-74
2022/02/14 09:44:12;;;;;;;13.93;10.93;;;;;;;;;;4991823;28;20037;-75
2022/02/14 09:46:39;;;;;;;17.15;12.15;;;;;;;;;;4990369;28;20405;-76
2022/02/14 09:49:06;;;;;;;15.02;11.50;;;;;;;;;;4991085;28;20038;-75
2022/02/14 09:51:35;;;;;;;15.25;10.40;;;;;;;;;;4991440;28;20477;-76
2022/02/14 09:54:02;;;;;;;13.77;10.90;;;;;;;;;;4991258;28;20034;-75
2022/02/14 09:56:32;;;;;;;17.42;13.30;;;;;;;;;;4991611;28;20042;-75
2022/02/14 09:58:59;;;;;;;16.23;11.18;;;;;;;;;;4991747;28;20031;-75
2022/02/14 10:01:31;;;;;;;20.15;13.43;;;;;;;;;;4991708;28;20030;-74
2022/02/14 10:03:57;;;;;;;18.17;13.82;;;;;;;;;;4991435;28;20050;-75
2022/02/14 10:06:28;;;;;;;19.65;14.70;;;;;;;;;;4991770;28;20056;-75
2022/02/14 10:09:13;;;;;;;17.65;12.73;;;;;;;;;;4991844;28;20026;-76
2022/02/14 10:11:56;;;;;;;17.08;10.13;;;;;;;;;;4991889;28;20038;-79
2022/02/14 10:14:22;;;;;;;16.40;12.07;;;;;;;;;;4991651;28;20022;-76
2022/02/14 10:17:02;;;;;;;21.75;16.08;;;;;;;;;;4991645;28;20089;-76
2022/02/14 10:19:29;;;;;;;14.00;11.25;;;;;;;;;;4991236;28;20113;-76
2022/02/14 10:21:56;;;;;;;13.38;11.38;;;;;;;;;;5029051;28;20061;-75
2022/02/14 10:24:22;;;;;;;13.98;9.82;;;;;;;;;;5029570;28;20104;-75
2022/02/14 10:26:50;;;;;;;15.45;12.02;;;;;;;;;;5030811;28;20041;-76
2022/02/14 10:29:19;;;;;;;13.65;10.88;;;;;;;;;;5004537;28;20026;-77
2022/02/14 10:32:04;;;;;;;37.42;27.50;;;;;;;;;;5011018;28;20053;-76
2022/02/14 10:34:33;;;;;;;14.85;11.48;;;;;;;;;;5003404;28;20088;-76
2022/02/14 10:36:59;;;;;;;13.18;11.05;;;;;;;;;;4999891;28;22172;-76
2022/02/14 10:39:26;;;;;;;15.23;11.15;;;;;;;;;;5010817;28;20486;-76
2022/02/14 10:41:57;;;;;;;15.23;11.88;;;;;;;;;;5010985;28;20029;-76
2022/02/14 10:47:19;;;;;;;16.60;12.70;;;;;;;;;;5003412;28;20026;-76
2022/02/14 10:49:56;;;;;;;37.67;32.17;;;;;;;;;;5011077;28;20116;-76
2022/02/14 10:52:23;;;;;;;15.98;13.35;;;;;;;;;;5010863;28;20465;-75
2022/02/14 10:54:49;;;;;;;14.10;11.35;;;;;;;;;;5010738;28;20060;-75
2022/02/14 10:57:26;;;;;;;29.55;21.45;;;;;;;;;;5010221;28;20042;-76
2022/02/14 10:59:56;;;;;;;19.48;16.08;;;;;;;;;;5013604;28;20029;-76
2022/02/14 11:02:22;;;;;;;14.80;12.38;;;;;;;;;;5014292;28;20038;-76
2022/02/14 11:04:50;;;;;;;14.75;12.90;;;;;;;;;;5014571;28;20084;-76
2022/02/14 11:07:16;;;;;;;18.90;14.38;;;;;;;;;;5014296;28;20022;-77
2022/02/14 11:09:46;;;;;;;16.75;12.73;;;;;;;;;;5014564;28;20416;-76
2022/02/14 11:12:13;;;;;;;13.55;12.23;;;;;;;;;;5013082;28;20101;-76
2022/02/14 11:14:41;;;;;;;12.68;11.32;;;;;;;;;;5014321;28;20389;-77
2022/02/14 11:17:08;;;;;;;13.57;11.65;;;;;;;;;;5012721;28;20034;-77
2022/02/14 11:19:36;;;;;;;14.85;10.73;;;;;;;;;;5006272;28;20025;-77
2022/02/14 11:22:03;;;;;;;15.00;11.07;;;;;;;;;;5014313;28;20058;-77
2022/02/14 11:24:31;;;;;;;16.10;13.18;;;;;;;;;;5014213;28;20041;-76
2022/02/14 11:27:00;;;;;;;18.50;12.50;;;;;;;;;;5013856;28;20033;-77
2022/02/14 11:29:52;;;;;;;14.82;11.95;;;;;;;;;;5013455;28;20665;-76
2022/02/14 11:32:23;;;;;;;13.80;10.30;;;;;;;;;;5011172;28;20065;-74
2022/02/14 11:34:53;;;;;;;12.57;10.77;;;;;;;;;;5014109;28;20065;-77
2022/02/14 11:37:19;;;;;;;14.00;11.52;;;;;;;;;;5013739;28;20034;-77
2022/02/14 11:39:46;;;;;;;14.57;10.35;;;;;;;;;;5013906;28;20030;-77
2022/02/14 11:42:12;;;;;;;13.93;11.73;;;;;;;;;;5013406;28;20029;-79
2022/02/14 11:44:38;;;;;;;14.77;11.25;;;;;;;;;;5013715;28;20393;-78
2022/02/14 11:47:04;;;;;;;17.38;13.77;;;;;;;;;;5010569;28;20120;-77
2022/02/14 11:49:37;;;;;;;10.73;9.60;;;;;;;;;;5001805;28;20107;-76
2022/02/14 11:52:05;;;;;;;13.95;11.00;;;;;;;;;;5004943;28;20096;-77
2022/02/14 11:54:43;;;;;;;11.18;10.07;;;;;;;;;;5009155;28;20030;-76
2022/02/14 11:57:13;;;;;;;10.30;9.25;;;;;;;;;;5001572;28;20047;-77
2022/02/14 11:59:42;;;;;;;10.75;9.65;;;;;;;;;;5009689;28;20362;-76
2022/02/14 12:02:08;;;;;;;10.02;8.77;;;;;;;;;;5011958;28;20496;-76
2022/02/14 12:07:28;;;;;;;12.32;9.90;;;;;;;;;;5012968;28;20041;-76
2022/02/14 12:09:57;;;;;;;12.63;9.98;;;;;;;;;;5012915;28;20021;-77
2022/02/14 12:12:42;;;;;;;11.32;8.85;;;;;;;;;;5012541;28;20512;-76
2022/02/14 12:15:08;;;;;;;;;;;;;;;;;;5013570;28;20055;-76
2022/02/14 12:20:34;;;;;;;10.00;9.10;;;;;;;;;;5003004;28;20037;-76
2022/02/14 12:23:01;;;;;;;11.68;9.77;;;;;;;;;;4992907;28;20034;-77
2022/02/14 12:25:27;;;;;;;10.73;9.63;;;;;;;;;;4992946;28;20096;-75
2022/02/14 12:27:53;;;;;;;10.82;9.02;;;;;;;;;;5000929;28;20038;-75
2022/02/14 12:30:20;;;;;;;16.90;10.95;;;;;;;;;;5011392;28;20116;-77
2022/02/14 12:33:00;;;;;;;19.15;11.90;;;;;;;;;;5013358;28;20030;-78
2022/02/14 12:35:37;;;;;;;12.65;9.98;;;;;;;;;;5013037;28;20565;-78
2022/02/14 12:38:03;;;;;;;14.93;11.00;;;;;;;;;;5012549;28;20037;-77
2022/02/14 12:40:48;;;;;;;15.05;11.00;;;;;;;;;;4992661;28;20355;-77
2022/02/14 12:43:33;;;;;;;12.25;10.95;;;;;;;;;;4992454;28;20500;-77
2022/02/14 12:46:01;;;;;;;9.80;8.75;;;;;;;;;;4993944;28;20026;-78
2022/02/14 12:48:46;;;;;;;11.90;9.02;;;;;;;;;;5010276;28;20377;-77
2022/02/14 12:51:12;;;;;;;;;;;;;;;;;;5008526;28;20027;-78
2022/02/14 12:53:39;;;;;;;9.75;8.77;;;;;;;;;;5012714;28;19909;-78
2022/02/14 12:56:24;;;;;;;11.85;9.75;;;;;;;;;;5012931;28;20029;-76
2022/02/14 12:58:57;;;;;;;17.13;13.80;;;;;;;;;;4993528;28;20038;-77
2022/02/14 13:01:24;;;;;;;11.40;10.20;;;;;;;;;;4993872;28;20026;-77
2022/02/14 13:04:03;;;;;;;13.13;10.25;;;;;;;;;;4992744;28;20117;-77
2022/02/14 13:06:46;;;;;;;11.43;9.90;;;;;;;;;;4993792;28;20084;-78
2022/02/14 13:09:30;;;;;;;10.07;8.85;;;;;;;;;;4994558;28;20030;-78
2022/02/14 13:11:58;;;;;;;11.48;9.45;;;;;;;;;;4991970;28;20038;-77
2022/02/14 13:14:25;;;;;;;9.30;8.30;;;;;;;;;;4993542;28;20038;-78
2022/02/14 13:16:52;;;;;;;10.88;9.75;;;;;;;;;;4996161;28;20037;-77
2022/02/14 13:19:18;;;;;;;10.40;8.32;;;;;;;;;;5012615;28;20029;-77
2022/02/14 13:21:44;;;;;;;10.18;9.05;;;;;;;;;;5012240;28;20029;-77
2022/02/14 13:24:20;;;;;;;12.75;10.35;;;;;;;;;;5012859;28;20101;-77
2022/02/14 13:26:46;;;;;;;11.57;10.07;;;;;;;;;;5009471;28;20029;-77
2022/02/14 13:29:12;;;;;;;14.45;11.13;;;;;;;;;;5012089;28;20033;-76
2022/02/14 13:31:39;;;;;;;18.40;13.00;;;;;;;;;;5012633;28;20366;-78
2022/02/14 13:34:08;;;;;;;20.63;11.95;;;;;;;;;;5012342;28;20194;-76
2022/02/14 13:36:35;;;;;;;17.00;11.75;;;;;;;;;;5012521;28;20385;-77
2022/02/14 13:39:01;;;;;;;29.85;16.35;;;;;;;;;;5012349;28;20038;-78
2022/02/14 13:41:29;;;;;;;33.03;19.45;;;;;;;;;;5011688;28;20026;-79
2022/02/14 13:43:55;;;;;;;46.88;29.95;;;;;;;;;;5006728;28;20052;-76
2022/02/14 13:46:40;;;;;;;33.70;20.50;;;;;;;;;;5012381;28;20034;-79
2022/02/14 13:49:07;;;;;;;19.63;14.75;;;;;;;;;;5001735;28;20088;-77
2022/02/14 13:51:37;;;;;;;13.43;11.02;;;;;;;;;;4992744;28;20026;-80
2022/02/14 13:54:10;;;;;;;44.65;22.35;;;;;;;;;;4992078;28;20792;-77
2022/02/14 13:56:45;;;;;;;17.35;12.30;;;;;;;;;;4990963;28;20058;-77
2022/02/14 13:59:11;;;;;;;;;;;;;;;;;;4992200;28;20101;-77
2022/02/14 14:01:37;;;;;;;17.55;11.15;;;;;;;;;;4993141;28;20068;-77
2022/02/14 14:04:26;;;;;;;16.60;11.15;;;;;;;;;;4991764;28;20038;-77
2022/02/14 14:07:12;;;;;;;13.57;9.35;;;;;;;;;;4992576;28;20110;-80
2022/02/14 14:09:49;;;;;;;15.73;10.40;;;;;;;;;;4994956;28;20118;-78
2022/02/14 14:12:16;;;;;;;15.88;11.07;;;;;;;;;;5012209;28;20101;-78
2022/02/14 14:14:44;;;;;;;27.73;13.98;;;;;;;;;;5012072;28;20038;-75
2022/02/14 14:17:11;;;;;;;13.95;10.68;;;;;;;;;;5031398;28;20083;-75
2022/02/14 14:19:44;;;;;;;15.90;10.90;;;;;;;;;;5028352;28;20030;-78
2022/02/14 14:22:11;;;;;;;13.43;11.70;;;;;;;;;;5011712;28;20038;-76
2022/02/14 14:24:37;;;;;;;16.73;10.98;;;;;;;;;;5011999;28;20551;-76
2022/02/14 14:27:06;;;;;;;26.08;13.82;;;;;;;;;;5007656;28;20381;-76
2022/02/14 14:29:32;;;;;;;23.98;13.75;;;;;;;;;;5009772;28;20065;-76
2022/02/14 14:31:59;;;;;;;10.18;9.10;;;;;;;;;;4993566;28;20058;-76
2022/02/14 14:34:25;;;;;;;13.63;7.90;;;;;;;;;;5000941;28;20021;-76